• Join FlightAware (Why Join?)
  • Login
  • US Flag 
05:56AM EDT


 

Airport Tracker/Info


-or-


 

Live Flight TrackerFlight Track Log ✈ N925AE ✈ 10-May-2013 ✈ KDFW - KVPS

Flight Track Log - Related Links

Times and Time Zones

All times are in EDT time to prevent confusion due to time zone crossing. See the N925AE flight status page for this flight to view local times or setup timezone preferences in your user account.

Time Position Orientation Groundspeed Altitude Reporting Facility
EDT Latitude Longitude Course Direction KTS MPH feet Rate Location/Type
04:16PM 32.9167 -97.0333 84° East 133 153 1,400  Level Dallas / Fort Worth TRACON
04:17PM 32.9333 -97.0167 40° Northeast 175 201 2,300 2,100 Climbing Dallas / Fort Worth TRACON
04:19PM 33.0183 -96.9625 28° Northeast 195 224 6,700 1,860 Climbing Fort Worth Center
04:20PM 32.7020 -96.6844 77° East  Level FlightAware Approximate
04:20PM 33.0056 -96.8833 101° East 211 243 7,900  Level Fort Worth Center
04:21PM 32.7273 -96.5488 77° East  Level FlightAware Approximate
04:21PM 32.9633 -96.7919 119° Southeast 262 302 10,300  Level Fort Worth Center
04:22PM 32.7422 -96.4111 84° East  Level FlightAware Approximate
04:22PM 32.9233 -96.7006 118° Southeast 297 342 11,600  Level Fort Worth Center
04:23PM 32.8789 -96.5997 118° Southeast 338 389 13,200 1,500 Climbing Fort Worth Center
04:24PM 32.8386 -96.5083 118° Southeast 344 396 14,700 1,500 Climbing Fort Worth Center
04:25PM 32.7853 -96.3903 118° Southeast 350 403 16,300 1,320 Climbing Fort Worth Center
04:26PM 32.7533 -96.2919 111° Southeast 350 403 17,400 1,320 Climbing Fort Worth Center
04:27PM 32.7311 -96.1539 101° East 376 433 19,000 1,500 Climbing Fort Worth Center
04:28PM 32.7153 -96.0406 99° East 389 448 20,400 1,500 Climbing Fort Worth Center
04:29PM 32.6928 -95.9003 101° East 389 448 22,000 1,440 Climbing Fort Worth Center
04:30PM 32.6725 -95.7822 102° East 389 448 23,300 1,440 Climbing Fort Worth Center
04:31PM 32.6558 -95.6344 98° East 394 453 24,900 1,320 Climbing Fort Worth Center
04:32PM 32.6625 -95.5083 86° East 408 470 26,000 1,200 Climbing Fort Worth Center
04:33PM 32.6728 -95.3700 85° East 408 470 27,400 1,320 Climbing Fort Worth Center
04:34PM 32.6808 -95.2339 86° East 413 475 28,700 1,260 Climbing Fort Worth Center
04:35PM 32.6911 -95.0956 85° East 413 475 30,000 1,200 Climbing Fort Worth Center
04:36PM 32.6989 -94.9572 86° East 418 481 31,200 1,140 Climbing Fort Worth Center
04:37PM 32.7064 -94.8161 86° East 424 488 32,300 1,020 Climbing Fort Worth Center
04:38PM 32.6767 -94.6861 105° East 411 473 33,300 1,020 Climbing Fort Worth Center
04:39PM 32.6319 -94.5594 113° Southeast 406 467 34,400 840 Climbing Fort Worth Center
04:40PM 32.5894 -94.4350 112° Southeast 406 467 35,000 300 Climbing Fort Worth Center
04:41PM 32.5444 -94.3058 112° Southeast 412 474 35,000  Level Fort Worth Center
04:42PM 32.5033 -94.1594 108° East 434 499 35,000  Level Fort Worth Center
04:43PM 32.4569 -93.9911 108° East 472 543 35,000 360 Level Fort Worth Center
04:44PM 32.4131 -93.8378 109° East 482 555 35,800 660 Climbing Fort Worth Center
04:46PM 32.3442 -93.6008 109° East 470 541 37,000 420 Climbing Houston Center
04:47PM 32.3011 -93.4561 109° East 466 536 37,000  Level Houston Center
04:48PM 32.2525 -93.2878 109° East 454 522 37,000  Level Houston Center
04:49PM 32.2111 -93.1517 110° East 443 510 37,000  Level Houston Center
04:50PM 32.1706 -93.0156 109° East 441 507 37,000  Level Houston Center
04:51PM 32.1286 -92.8758 109° East 448 516 37,000  Level Houston Center
04:52PM 32.0850 -92.7314 110° East 460 529 37,000 -60 Level Houston Center
04:53PM 32.0397 -92.5842 110° East 459 528 36,900  Descending Houston Center
04:54PM 31.9983 -92.4453 109° East 452 520 37,000  Climbing Houston Center
04:55PM 31.9561 -92.3075 110° East 448 516 37,000  Level Houston Center
04:56PM 31.9042 -92.1419 110° East 449 517 37,000  Level Houston Center
04:57PM 31.8619 -92.0056 110° East 452 520 37,000  Level Houston Center
04:58PM 31.8183 -91.8656 110° East 454 522 37,000  Level Houston Center
04:59PM 31.7753 -91.7242 110° East 456 525 37,000  Level Houston Center
05:00PM 31.7300 -91.5797 110° East 464 534 37,000  Level Houston Center
05:01PM 31.6833 -91.4350 111° Southeast 469 540 37,000  Level Houston Center
05:02PM 31.6306 -91.2647 110° East 466 536 37,000  Level Houston Center
05:03PM 31.5850 -91.1244 111° Southeast 463 533 37,000  Level Houston Center
05:04PM 31.5403 -90.9867 111° Southeast 457 526 37,000  Level Houston Center
05:05PM 31.4950 -90.8494 111° Southeast 453 521 37,000  Level Houston Center
05:06PM 31.4494 -90.7100 111° Southeast 457 526 37,000  Level Houston Center
05:07PM 31.4058 -90.5697 110° East 457 526 37,000  Level Houston Center
05:08PM 31.3556 -90.4103 110° East 440 506 37,000  Level Houston Center
05:09PM 31.3119 -90.2814 112° Southeast 430 495 37,000  Level Houston Center
05:10PM 31.2789 -90.1450 106° East 433 498 37,000  Level Houston Center
05:11PM 31.2517 -90.0000 102° East 448 516 37,000  Level Houston Center
05:12PM 31.2222 -89.8561 103° East 453 521 37,000  Level Houston Center
05:13PM 31.1908 -89.7081 104° East 465 535 37,000  Level Houston Center
05:14PM 31.1600 -89.5564 103° East 475 547 37,000  Level Houston Center
05:15PM 31.1222 -89.3750 104° East 476 548 37,000  Level Houston Center
05:17PM 31.0903 -89.2258 104° East 472 543 37,000 -60 Level Houston Center
05:18PM 31.0578 -89.0753 104° East 476 548 36,900  Descending Houston Center
05:19PM 31.0242 -88.9222 104° East 467 537 37,000  Climbing Houston Center
05:20PM 30.9922 -88.7781 104° East 463 533 37,000 -300 Level Houston Center
05:21PM 30.9617 -88.6358 104° East 456 525 36,400 -1,020 Descending Houston Center
05:22PM 30.9319 -88.4953 104° East 461 531 34,900 -2,100 Descending Houston Center
05:23PM 30.8931 -88.3186 104° East 467 537 32,100 -2,520 Descending Houston Center
05:24PM 30.8594 -88.1686 105° East 476 548 29,800 -2,280 Descending Houston Center
05:25PM 30.8278 -88.0183 104° East 478 550 27,500 -2,220 Descending Houston Center
05:26PM 30.7942 -87.8706 105° East 475 547 25,300 -1,920 Descending Houston Center
05:27PM 30.7683 -87.7614 105° East 464 534 24,100 -960 Descending Jacksonville Center
05:28PM 30.7719 -87.6117 88° East 454 522 23,700 -1,500 Descending Jacksonville Center
05:29PM 30.7814 -87.4647 86° East 454 522 21,100 -3,060 Descending Jacksonville Center
05:30PM 30.7908 -87.3178 86° East 454 522 17,600 -3,360 Descending Jacksonville Center
05:31PM 30.7994 -87.1875 86° East 436 502 14,400 -3,120 Descending Jacksonville Center
05:32PM 30.8081 -87.0597 85° East 416 479 11,400 -1,740 Descending Jacksonville Center
05:33PM 30.8117 -86.9461 88° East 381 438 11,000 -900 Descending Jacksonville Center
05:34PM 30.8186 -86.8547 85° East 326 375 9,700 -1,740 Descending Jacksonville Center
05:35PM 30.8236 -86.7581 87° East 298 343 7,600 -2,040 Descending Jacksonville Center
05:36PM 30.8036 -86.6678 104° East 287 330 5,700 -1,740 Descending Jacksonville Center
05:37PM 30.7683 -86.5842 116° Southeast 287 330 4,200 -1,140 Descending Jacksonville Center
05:38PM 30.7392 -86.5106 115° Southeast 266 306 3,500 -720 Descending Jacksonville Center
05:39PM 30.7053 -86.4561 126° Southeast 238 274 2,800 -720 Descending Jacksonville Center